sensor_id;sensor_type;location;lat;lon;timestamp;P1;durP1;ratioP1;P2;durP2;ratioP2
7263;SDS011;3673;52.480;13.348;2023-05-28T00:01:27;9.68;;;5.60;;
7263;SDS011;3673;52.480;13.348;2023-05-28T00:03:55;13.60;;;5.57;;
7263;SDS011;3673;52.480;13.348;2023-05-28T00:06:22;12.52;;;7.70;;
7263;SDS011;3673;52.480;13.348;2023-05-28T00:08:49;13.85;;;6.57;;
7263;SDS011;3673;52.480;13.348;2023-05-28T00:11:16;10.82;;;6.20;;
7263;SDS011;3673;52.480;13.348;2023-05-28T00:13:43;10.82;;;6.50;;
7263;SDS011;3673;52.480;13.348;2023-05-28T00:16:10;12.05;;;6.72;;
7263;SDS011;3673;52.480;13.348;2023-05-28T00:18:38;10.57;;;5.55;;
7263;SDS011;3673;52.480;13.348;2023-05-28T00:21:06;9.90;;;6.53;;
7263;SDS011;3673;52.480;13.348;2023-05-28T00:23:33;12.70;;;6.30;;
7263;SDS011;3673;52.480;13.348;2023-05-28T00:26:00;12.50;;;5.55;;
7263;SDS011;3673;52.480;13.348;2023-05-28T00:28:27;12.68;;;5.78;;
7263;SDS011;3673;52.480;13.348;2023-05-28T00:30:54;10.10;;;6.10;;
7263;SDS011;3673;52.480;13.348;2023-05-28T00:33:21;15.20;;;6.13;;
7263;SDS011;3673;52.480;13.348;2023-05-28T00:35:47;10.73;;;6.45;;
7263;SDS011;3673;52.480;13.348;2023-05-28T00:38:21;10.85;;;5.53;;
7263;SDS011;3673;52.480;13.348;2023-05-28T00:40:48;9.27;;;5.88;;
7263;SDS011;3673;52.480;13.348;2023-05-28T00:43:15;10.00;;;5.45;;
7263;SDS011;3673;52.480;13.348;2023-05-28T00:45:42;13.75;;;6.28;;
7263;SDS011;3673;52.480;13.348;2023-05-28T00:48:08;13.50;;;5.60;;
7263;SDS011;3673;52.480;13.348;2023-05-28T00:50:35;13.27;;;6.30;;
7263;SDS011;3673;52.480;13.348;2023-05-28T00:53:04;7.85;;;5.25;;
7263;SDS011;3673;52.480;13.348;2023-05-28T00:55:32;9.23;;;5.85;;
7263;SDS011;3673;52.480;13.348;2023-05-28T00:57:59;8.30;;;4.97;;
7263;SDS011;3673;52.480;13.348;2023-05-28T01:00:30;11.68;;;6.10;;
7263;SDS011;3673;52.480;13.348;2023-05-28T01:02:58;9.07;;;5.38;;
7263;SDS011;3673;52.480;13.348;2023-05-28T01:05:25;10.10;;;6.30;;
7263;SDS011;3673;52.480;13.348;2023-05-28T01:07:52;14.27;;;6.47;;
7263;SDS011;3673;52.480;13.348;2023-05-28T01:10:19;11.20;;;6.22;;
7263;SDS011;3673;52.480;13.348;2023-05-28T01:12:47;11.43;;;5.65;;
7263;SDS011;3673;52.480;13.348;2023-05-28T01:15:14;11.25;;;5.43;;
7263;SDS011;3673;52.480;13.348;2023-05-28T01:17:41;8.27;;;5.75;;
7263;SDS011;3673;52.480;13.348;2023-05-28T01:20:09;10.30;;;6.43;;
7263;SDS011;3673;52.480;13.348;2023-05-28T01:22:38;10.45;;;5.53;;
7263;SDS011;3673;52.480;13.348;2023-05-28T01:25:12;10.25;;;5.63;;
7263;SDS011;3673;52.480;13.348;2023-05-28T01:27:39;11.98;;;5.63;;
7263;SDS011;3673;52.480;13.348;2023-05-28T01:30:07;12.95;;;5.95;;
7263;SDS011;3673;52.480;13.348;2023-05-28T01:32:35;7.93;;;4.82;;
7263;SDS011;3673;52.480;13.348;2023-05-28T01:35:02;9.85;;;5.40;;
7263;SDS011;3673;52.480;13.348;2023-05-28T01:37:30;15.20;;;6.13;;
7263;SDS011;3673;52.480;13.348;2023-05-28T01:39:58;11.93;;;5.97;;
7263;SDS011;3673;52.480;13.348;2023-05-28T01:42:29;9.70;;;5.90;;
7263;SDS011;3673;52.480;13.348;2023-05-28T01:44:57;10.38;;;5.32;;
7263;SDS011;3673;52.480;13.348;2023-05-28T01:47:25;9.68;;;5.63;;
7263;SDS011;3673;52.480;13.348;2023-05-28T01:49:53;10.82;;;5.15;;
7263;SDS011;3673;52.480;13.348;2023-05-28T01:52:20;10.98;;;6.13;;
7263;SDS011;3673;52.480;13.348;2023-05-28T01:54:47;11.02;;;5.93;;
7263;SDS011;3673;52.480;13.348;2023-05-28T01:57:14;10.80;;;5.53;;
7263;SDS011;3673;52.480;13.348;2023-05-28T01:59:42;10.90;;;6.68;;
7263;SDS011;3673;52.480;13.348;2023-05-28T02:02:09;10.40;;;5.53;;
7263;SDS011;3673;52.480;13.348;2023-05-28T02:04:36;12.38;;;5.85;;
7263;SDS011;3673;52.480;13.348;2023-05-28T02:07:03;16.65;;;5.50;;
7263;SDS011;3673;52.480;13.348;2023-05-28T02:09:30;9.40;;;4.93;;
7263;SDS011;3673;52.480;13.348;2023-05-28T02:11:57;13.27;;;5.70;;
7263;SDS011;3673;52.480;13.348;2023-05-28T02:14:27;10.75;;;5.45;;
7263;SDS011;3673;52.480;13.348;2023-05-28T02:16:56;10.18;;;5.22;;
7263;SDS011;3673;52.480;13.348;2023-05-28T02:19:23;11.30;;;5.40;;
7263;SDS011;3673;52.480;13.348;2023-05-28T02:21:50;13.75;;;5.40;;
7263;SDS011;3673;52.480;13.348;2023-05-28T02:24:18;8.05;;;5.30;;
7263;SDS011;3673;52.480;13.348;2023-05-28T02:26:45;8.68;;;5.53;;
7263;SDS011;3673;52.480;13.348;2023-05-28T02:29:12;11.25;;;5.57;;
7263;SDS011;3673;52.480;13.348;2023-05-28T02:31:40;12.98;;;6.95;;
7263;SDS011;3673;52.480;13.348;2023-05-28T02:34:08;7.53;;;4.97;;
7263;SDS011;3673;52.480;13.348;2023-05-28T02:36:35;9.55;;;5.68;;
7263;SDS011;3673;52.480;13.348;2023-05-28T02:39:02;12.32;;;5.70;;
7263;SDS011;3673;52.480;13.348;2023-05-28T02:41:29;11.98;;;5.50;;
7263;SDS011;3673;52.480;13.348;2023-05-28T02:43:55;8.73;;;5.57;;
7263;SDS011;3673;52.480;13.348;2023-05-28T02:46:22;11.27;;;5.00;;
7263;SDS011;3673;52.480;13.348;2023-05-28T02:48:50;11.30;;;5.25;;
7263;SDS011;3673;52.480;13.348;2023-05-28T02:51:18;9.70;;;5.55;;
7263;SDS011;3673;52.480;13.348;2023-05-28T02:53:44;24.38;;;12.02;;
7263;SDS011;3673;52.480;13.348;2023-05-28T02:56:11;8.00;;;5.68;;
7263;SDS011;3673;52.480;13.348;2023-05-28T02:58:38;13.10;;;5.47;;
7263;SDS011;3673;52.480;13.348;2023-05-28T03:01:05;10.88;;;5.38;;
7263;SDS011;3673;52.480;13.348;2023-05-28T03:03:32;10.48;;;5.38;;
7263;SDS011;3673;52.480;13.348;2023-05-28T03:05:58;10.45;;;5.47;;
7263;SDS011;3673;52.480;13.348;2023-05-28T03:08:27;9.20;;;5.53;;
7263;SDS011;3673;52.480;13.348;2023-05-28T03:10:53;9.50;;;5.50;;
7263;SDS011;3673;52.480;13.348;2023-05-28T03:13:20;10.75;;;5.70;;
7263;SDS011;3673;52.480;13.348;2023-05-28T03:15:47;8.60;;;4.90;;
7263;SDS011;3673;52.480;13.348;2023-05-28T03:18:14;9.38;;;4.93;;
7263;SDS011;3673;52.480;13.348;2023-05-28T03:20:40;12.88;;;5.90;;
7263;SDS011;3673;52.480;13.348;2023-05-28T03:23:07;9.20;;;5.93;;
7263;SDS011;3673;52.480;13.348;2023-05-28T03:25:35;10.32;;;5.72;;
7263;SDS011;3673;52.480;13.348;2023-05-28T03:28:02;11.45;;;5.60;;
7263;SDS011;3673;52.480;13.348;2023-05-28T03:30:29;11.25;;;5.97;;
7263;SDS011;3673;52.480;13.348;2023-05-28T03:32:55;8.38;;;6.00;;
7263;SDS011;3673;52.480;13.348;2023-05-28T03:35:22;11.25;;;6.15;;
7263;SDS011;3673;52.480;13.348;2023-05-28T03:37:49;10.07;;;6.05;;
7263;SDS011;3673;52.480;13.348;2023-05-28T03:40:16;10.60;;;5.60;;
7263;SDS011;3673;52.480;13.348;2023-05-28T03:42:44;11.77;;;5.95;;
7263;SDS011;3673;52.480;13.348;2023-05-28T03:45:12;11.15;;;5.60;;
7263;SDS011;3673;52.480;13.348;2023-05-28T03:47:38;9.00;;;4.90;;
7263;SDS011;3673;52.480;13.348;2023-05-28T03:50:06;11.27;;;5.15;;
7263;SDS011;3673;52.480;13.348;2023-05-28T03:52:33;8.25;;;5.18;;
7263;SDS011;3673;52.480;13.348;2023-05-28T03:54:59;8.88;;;5.43;;
7263;SDS011;3673;52.480;13.348;2023-05-28T03:57:26;8.68;;;5.10;;
7263;SDS011;3673;52.480;13.348;2023-05-28T03:59:54;9.20;;;5.03;;
7263;SDS011;3673;52.480;13.348;2023-05-28T04:02:22;8.13;;;5.57;;
7263;SDS011;3673;52.480;13.348;2023-05-28T04:04:49;11.40;;;5.35;;
7263;SDS011;3673;52.480;13.348;2023-05-28T04:07:16;12.35;;;5.65;;
7263;SDS011;3673;52.480;13.348;2023-05-28T04:09:43;10.82;;;5.55;;
7263;SDS011;3673;52.480;13.348;2023-05-28T04:12:10;8.63;;;5.45;;
7263;SDS011;3673;52.480;13.348;2023-05-28T04:14:37;8.68;;;5.22;;
7263;SDS011;3673;52.480;13.348;2023-05-28T04:17:07;11.57;;;5.90;;
7263;SDS011;3673;52.480;13.348;2023-05-28T04:19:35;12.65;;;5.05;;
7263;SDS011;3673;52.480;13.348;2023-05-28T04:22:02;12.52;;;5.82;;
7263;SDS011;3673;52.480;13.348;2023-05-28T04:24:29;11.80;;;6.10;;
7263;SDS011;3673;52.480;13.348;2023-05-28T04:26:56;9.18;;;5.28;;
7263;SDS011;3673;52.480;13.348;2023-05-28T04:29:24;9.68;;;5.63;;
7263;SDS011;3673;52.480;13.348;2023-05-28T04:31:54;9.35;;;5.97;;
7263;SDS011;3673;52.480;13.348;2023-05-28T04:34:23;8.73;;;5.45;;
7263;SDS011;3673;52.480;13.348;2023-05-28T04:36:51;11.93;;;5.18;;
7263;SDS011;3673;52.480;13.348;2023-05-28T04:39:17;8.45;;;4.60;;
7263;SDS011;3673;52.480;13.348;2023-05-28T04:41:46;12.93;;;5.72;;
7263;SDS011;3673;52.480;13.348;2023-05-28T04:44:13;9.35;;;5.78;;
7263;SDS011;3673;52.480;13.348;2023-05-28T04:46:40;11.93;;;5.93;;
7263;SDS011;3673;52.480;13.348;2023-05-28T04:49:08;9.15;;;4.68;;
7263;SDS011;3673;52.480;13.348;2023-05-28T04:51:38;11.57;;;5.22;;
7263;SDS011;3673;52.480;13.348;2023-05-28T04:54:05;10.00;;;5.15;;
7263;SDS011;3673;52.480;13.348;2023-05-28T04:56:32;10.45;;;5.47;;
7263;SDS011;3673;52.480;13.348;2023-05-28T04:58:58;13.70;;;5.75;;
7263;SDS011;3673;52.480;13.348;2023-05-28T05:01:25;8.90;;;4.93;;
7263;SDS011;3673;52.480;13.348;2023-05-28T05:03:52;9.88;;;5.20;;
7263;SDS011;3673;52.480;13.348;2023-05-28T05:06:19;9.35;;;5.57;;
7263;SDS011;3673;52.480;13.348;2023-05-28T05:08:47;9.90;;;5.25;;
7263;SDS011;3673;52.480;13.348;2023-05-28T05:11:14;11.57;;;5.60;;
7263;SDS011;3673;52.480;13.348;2023-05-28T05:13:42;11.52;;;5.35;;
7263;SDS011;3673;52.480;13.348;2023-05-28T05:16:08;11.60;;;5.07;;
7263;SDS011;3673;52.480;13.348;2023-05-28T05:18:35;10.52;;;5.00;;
7263;SDS011;3673;52.480;13.348;2023-05-28T05:21:02;10.57;;;5.03;;
7263;SDS011;3673;52.480;13.348;2023-05-28T05:23:29;10.20;;;5.45;;
7263;SDS011;3673;52.480;13.348;2023-05-28T05:25:57;11.48;;;5.03;;
7263;SDS011;3673;52.480;13.348;2023-05-28T05:28:24;11.32;;;4.97;;
7263;SDS011;3673;52.480;13.348;2023-05-28T05:30:51;10.40;;;7.10;;
7263;SDS011;3673;52.480;13.348;2023-05-28T05:33:18;11.20;;;5.18;;
7263;SDS011;3673;52.480;13.348;2023-05-28T05:35:44;9.38;;;5.63;;
7263;SDS011;3673;52.480;13.348;2023-05-28T05:38:11;10.38;;;5.78;;
7263;SDS011;3673;52.480;13.348;2023-05-28T05:40:38;13.48;;;5.05;;
7263;SDS011;3673;52.480;13.348;2023-05-28T05:43:06;9.02;;;5.50;;
7263;SDS011;3673;52.480;13.348;2023-05-28T05:45:33;9.98;;;5.72;;
7263;SDS011;3673;52.480;13.348;2023-05-28T05:48:00;10.93;;;5.38;;
7263;SDS011;3673;52.480;13.348;2023-05-28T05:50:26;8.25;;;5.03;;
7263;SDS011;3673;52.480;13.348;2023-05-28T05:52:53;7.93;;;4.68;;
7263;SDS011;3673;52.480;13.348;2023-05-28T05:55:20;12.48;;;5.40;;
7263;SDS011;3673;52.480;13.348;2023-05-28T05:57:47;10.23;;;5.15;;
7263;SDS011;3673;52.480;13.348;2023-05-28T06:00:18;11.10;;;5.32;;
7263;SDS011;3673;52.480;13.348;2023-05-28T06:02:45;10.60;;;5.07;;
7263;SDS011;3673;52.480;13.348;2023-05-28T06:05:12;9.23;;;5.30;;
7263;SDS011;3673;52.480;13.348;2023-05-28T06:07:39;10.95;;;5.47;;
7263;SDS011;3673;52.480;13.348;2023-05-28T06:10:06;10.75;;;5.40;;
7263;SDS011;3673;52.480;13.348;2023-05-28T06:12:33;10.18;;;5.10;;
7263;SDS011;3673;52.480;13.348;2023-05-28T06:15:00;9.60;;;4.88;;
7263;SDS011;3673;52.480;13.348;2023-05-28T06:17:29;10.52;;;4.65;;
7263;SDS011;3673;52.480;13.348;2023-05-28T06:19:56;9.40;;;4.78;;
7263;SDS011;3673;52.480;13.348;2023-05-28T06:22:25;6.03;;;3.63;;
7263;SDS011;3673;52.480;13.348;2023-05-28T06:24:52;5.97;;;3.88;;
7263;SDS011;3673;52.480;13.348;2023-05-28T06:27:21;12.68;;;4.38;;
7263;SDS011;3673;52.480;13.348;2023-05-28T06:29:48;9.77;;;3.83;;
7263;SDS011;3673;52.480;13.348;2023-05-28T06:32:15;13.25;;;4.78;;
7263;SDS011;3673;52.480;13.348;2023-05-28T06:34:43;10.55;;;4.07;;
7263;SDS011;3673;52.480;13.348;2023-05-28T06:37:09;13.05;;;4.00;;
7263;SDS011;3673;52.480;13.348;2023-05-28T06:39:36;7.45;;;4.03;;
7263;SDS011;3673;52.480;13.348;2023-05-28T06:42:03;5.40;;;3.97;;
7263;SDS011;3673;52.480;13.348;2023-05-28T06:44:32;6.47;;;3.78;;
7263;SDS011;3673;52.480;13.348;2023-05-28T06:47:00;5.63;;;3.25;;
7263;SDS011;3673;52.480;13.348;2023-05-28T06:49:27;10.13;;;4.15;;
7263;SDS011;3673;52.480;13.348;2023-05-28T06:51:55;9.68;;;3.67;;
7263;SDS011;3673;52.480;13.348;2023-05-28T06:54:22;9.50;;;4.20;;
7263;SDS011;3673;52.480;13.348;2023-05-28T06:56:48;6.10;;;3.80;;
7263;SDS011;3673;52.480;13.348;2023-05-28T06:59:15;6.57;;;3.63;;
7263;SDS011;3673;52.480;13.348;2023-05-28T07:01:42;6.72;;;3.33;;
7263;SDS011;3673;52.480;13.348;2023-05-28T07:04:09;7.55;;;3.63;;
7263;SDS011;3673;52.480;13.348;2023-05-28T07:06:36;6.22;;;3.53;;
7263;SDS011;3673;52.480;13.348;2023-05-28T07:09:05;8.27;;;3.67;;
7263;SDS011;3673;52.480;13.348;2023-05-28T07:11:32;8.35;;;3.58;;
7263;SDS011;3673;52.480;13.348;2023-05-28T07:13:58;5.00;;;2.72;;
7263;SDS011;3673;52.480;13.348;2023-05-28T07:16:25;8.98;;;3.97;;
7263;SDS011;3673;52.480;13.348;2023-05-28T07:18:52;6.80;;;2.90;;
7263;SDS011;3673;52.480;13.348;2023-05-28T07:21:19;6.03;;;3.17;;
7263;SDS011;3673;52.480;13.348;2023-05-28T07:23:46;5.85;;;3.30;;
7263;SDS011;3673;52.480;13.348;2023-05-28T07:26:14;4.60;;;2.83;;
7263;SDS011;3673;52.480;13.348;2023-05-28T07:28:41;5.78;;;2.60;;
7263;SDS011;3673;52.480;13.348;2023-05-28T07:31:08;4.93;;;2.78;;
7263;SDS011;3673;52.480;13.348;2023-05-28T07:33:35;5.22;;;2.75;;
7263;SDS011;3673;52.480;13.348;2023-05-28T07:36:01;7.40;;;2.95;;
7263;SDS011;3673;52.480;13.348;2023-05-28T07:38:28;3.60;;;2.55;;
7263;SDS011;3673;52.480;13.348;2023-05-28T07:40:55;5.82;;;2.63;;
7263;SDS011;3673;52.480;13.348;2023-05-28T07:43:23;5.25;;;2.97;;
7263;SDS011;3673;52.480;13.348;2023-05-28T07:45:50;6.22;;;2.80;;
7263;SDS011;3673;52.480;13.348;2023-05-28T07:48:18;4.13;;;2.38;;
7263;SDS011;3673;52.480;13.348;2023-05-28T07:50:45;6.47;;;2.72;;
7263;SDS011;3673;52.480;13.348;2023-05-28T07:53:11;5.38;;;2.60;;
7263;SDS011;3673;52.480;13.348;2023-05-28T07:55:38;3.92;;;2.50;;
7263;SDS011;3673;52.480;13.348;2023-05-28T07:58:05;6.10;;;3.03;;
7263;SDS011;3673;52.480;13.348;2023-05-28T08:00:34;6.55;;;2.67;;
7263;SDS011;3673;52.480;13.348;2023-05-28T08:03:02;5.90;;;3.22;;
7263;SDS011;3673;52.480;13.348;2023-05-28T08:05:28;7.05;;;2.63;;
7263;SDS011;3673;52.480;13.348;2023-05-28T08:07:55;4.32;;;2.92;;
7263;SDS011;3673;52.480;13.348;2023-05-28T08:10:22;4.43;;;2.42;;
7263;SDS011;3673;52.480;13.348;2023-05-28T08:12:52;6.80;;;2.83;;
7263;SDS011;3673;52.480;13.348;2023-05-28T08:15:19;7.40;;;2.53;;
7263;SDS011;3673;52.480;13.348;2023-05-28T08:17:47;5.65;;;2.65;;
7263;SDS011;3673;52.480;13.348;2023-05-28T08:20:14;5.63;;;2.55;;
7263;SDS011;3673;52.480;13.348;2023-05-28T08:22:41;5.30;;;2.28;;
7263;SDS011;3673;52.480;13.348;2023-05-28T08:25:08;11.82;;;2.70;;
7263;SDS011;3673;52.480;13.348;2023-05-28T08:27:35;6.03;;;2.78;;
7263;SDS011;3673;52.480;13.348;2023-05-28T08:30:02;5.55;;;2.75;;
7263;SDS011;3673;52.480;13.348;2023-05-28T08:32:33;4.70;;;2.67;;
7263;SDS011;3673;52.480;13.348;2023-05-28T08:35:36;7.38;;;2.10;;
7263;SDS011;3673;52.480;13.348;2023-05-28T08:38:08;6.15;;;2.55;;
7263;SDS011;3673;52.480;13.348;2023-05-28T08:40:36;4.80;;;2.53;;
7263;SDS011;3673;52.480;13.348;2023-05-28T08:43:06;6.85;;;3.38;;
7263;SDS011;3673;52.480;13.348;2023-05-28T08:45:33;4.50;;;2.53;;
7263;SDS011;3673;52.480;13.348;2023-05-28T08:48:03;6.10;;;2.72;;
7263;SDS011;3673;52.480;13.348;2023-05-28T08:50:32;4.13;;;2.58;;
7263;SDS011;3673;52.480;13.348;2023-05-28T08:53:03;4.57;;;2.80;;
7263;SDS011;3673;52.480;13.348;2023-05-28T08:55:33;5.43;;;2.97;;
7263;SDS011;3673;52.480;13.348;2023-05-28T08:58:01;7.13;;;2.85;;
7263;SDS011;3673;52.480;13.348;2023-05-28T09:00:29;3.10;;;2.17;;
7263;SDS011;3673;52.480;13.348;2023-05-28T09:02:56;5.43;;;2.58;;
7263;SDS011;3673;52.480;13.348;2023-05-28T09:05:24;8.63;;;2.33;;
7263;SDS011;3673;52.480;13.348;2023-05-28T09:07:51;4.40;;;2.50;;
7263;SDS011;3673;52.480;13.348;2023-05-28T09:10:18;3.95;;;3.15;;
7263;SDS011;3673;52.480;13.348;2023-05-28T09:12:56;5.72;;;2.50;;
7263;SDS011;3673;52.480;13.348;2023-05-28T09:15:24;3.25;;;2.50;;
7263;SDS011;3673;52.480;13.348;2023-05-28T09:17:51;5.50;;;3.00;;
7263;SDS011;3673;52.480;13.348;2023-05-28T09:20:18;7.05;;;2.90;;
7263;SDS011;3673;52.480;13.348;2023-05-28T09:22:50;3.53;;;2.67;;
7263;SDS011;3673;52.480;13.348;2023-05-28T09:25:25;5.72;;;3.20;;
7263;SDS011;3673;52.480;13.348;2023-05-28T09:27:53;7.43;;;2.88;;
7263;SDS011;3673;52.480;13.348;2023-05-28T09:30:20;8.15;;;3.47;;
7263;SDS011;3673;52.480;13.348;2023-05-28T09:32:55;3.10;;;2.17;;
7263;SDS011;3673;52.480;13.348;2023-05-28T09:35:27;5.90;;;2.58;;
7263;SDS011;3673;52.480;13.348;2023-05-28T09:38:03;5.28;;;2.10;;
7263;SDS011;3673;52.480;13.348;2023-05-28T09:40:34;6.00;;;2.88;;
7263;SDS011;3673;52.480;13.348;2023-05-28T09:43:05;5.57;;;2.65;;
7263;SDS011;3673;52.480;13.348;2023-05-28T09:45:32;5.68;;;3.38;;
7263;SDS011;3673;52.480;13.348;2023-05-28T09:47:59;6.50;;;2.70;;
7263;SDS011;3673;52.480;13.348;2023-05-28T09:50:26;6.75;;;3.65;;
7263;SDS011;3673;52.480;13.348;2023-05-28T09:52:54;3.50;;;2.47;;
7263;SDS011;3673;52.480;13.348;2023-05-28T09:55:24;4.70;;;2.75;;
7263;SDS011;3673;52.480;13.348;2023-05-28T09:57:55;5.65;;;2.50;;
7263;SDS011;3673;52.480;13.348;2023-05-28T10:00:30;4.95;;;2.28;;
7263;SDS011;3673;52.480;13.348;2023-05-28T10:05:51;4.30;;;2.50;;
7263;SDS011;3673;52.480;13.348;2023-05-28T10:08:22;4.07;;;2.20;;
7263;SDS011;3673;52.480;13.348;2023-05-28T10:10:52;4.15;;;2.35;;
7263;SDS011;3673;52.480;13.348;2023-05-28T10:13:20;5.57;;;3.03;;
7263;SDS011;3673;52.480;13.348;2023-05-28T10:15:48;3.65;;;2.50;;
7263;SDS011;3673;52.480;13.348;2023-05-28T10:18:16;7.22;;;2.40;;
7263;SDS011;3673;52.480;13.348;2023-05-28T10:20:45;5.10;;;2.88;;
7263;SDS011;3673;52.480;13.348;2023-05-28T10:23:12;6.20;;;2.53;;
7263;SDS011;3673;52.480;13.348;2023-05-28T10:25:40;4.88;;;3.05;;
7263;SDS011;3673;52.480;13.348;2023-05-28T10:28:08;6.95;;;2.63;;
7263;SDS011;3673;52.480;13.348;2023-05-28T10:30:40;4.43;;;2.60;;
7263;SDS011;3673;52.480;13.348;2023-05-28T10:33:07;7.53;;;2.55;;
7263;SDS011;3673;52.480;13.348;2023-05-28T10:35:49;3.88;;;2.55;;
7263;SDS011;3673;52.480;13.348;2023-05-28T10:38:18;5.53;;;2.80;;
7263;SDS011;3673;52.480;13.348;2023-05-28T10:40:45;7.32;;;2.90;;
7263;SDS011;3673;52.480;13.348;2023-05-28T10:46:11;4.03;;;2.75;;
7263;SDS011;3673;52.480;13.348;2023-05-28T10:48:41;5.90;;;3.63;;
7263;SDS011;3673;52.480;13.348;2023-05-28T10:51:42;5.75;;;2.42;;
7263;SDS011;3673;52.480;13.348;2023-05-28T10:54:20;3.53;;;2.53;;
7263;SDS011;3673;52.480;13.348;2023-05-28T10:57:07;4.80;;;3.03;;
7263;SDS011;3673;52.480;13.348;2023-05-28T10:59:46;9.30;;;3.10;;
7263;SDS011;3673;52.480;13.348;2023-05-28T11:02:19;6.53;;;2.67;;
7263;SDS011;3673;52.480;13.348;2023-05-28T11:04:50;5.35;;;3.20;;
7263;SDS011;3673;52.480;13.348;2023-05-28T11:07:21;4.63;;;3.13;;
7263;SDS011;3673;52.480;13.348;2023-05-28T11:09:49;5.93;;;3.38;;
7263;SDS011;3673;52.480;13.348;2023-05-28T11:12:18;6.78;;;2.47;;
7263;SDS011;3673;52.480;13.348;2023-05-28T11:14:47;5.95;;;2.38;;
7263;SDS011;3673;52.480;13.348;2023-05-28T11:17:15;8.15;;;2.58;;
7263;SDS011;3673;52.480;13.348;2023-05-28T11:19:42;5.22;;;2.53;;
7263;SDS011;3673;52.480;13.348;2023-05-28T11:22:10;3.83;;;2.83;;
7263;SDS011;3673;52.480;13.348;2023-05-28T11:24:50;3.75;;;3.45;;
7263;SDS011;3673;52.480;13.348;2023-05-28T11:27:24;3.38;;;2.63;;
7263;SDS011;3673;52.480;13.348;2023-05-28T11:29:54;8.02;;;2.97;;
7263;SDS011;3673;52.480;13.348;2023-05-28T11:32:22;10.75;;;3.80;;
7263;SDS011;3673;52.480;13.348;2023-05-28T11:34:49;14.60;;;4.53;;
7263;SDS011;3673;52.480;13.348;2023-05-28T11:37:22;4.95;;;3.20;;
7263;SDS011;3673;52.480;13.348;2023-05-28T11:39:52;9.65;;;3.67;;
7263;SDS011;3673;52.480;13.348;2023-05-28T11:42:20;11.45;;;3.45;;
7263;SDS011;3673;52.480;13.348;2023-05-28T11:44:49;7.18;;;2.60;;
7263;SDS011;3673;52.480;13.348;2023-05-28T11:47:18;9.55;;;3.28;;
7263;SDS011;3673;52.480;13.348;2023-05-28T11:49:46;5.53;;;2.63;;
7263;SDS011;3673;52.480;13.348;2023-05-28T11:52:14;9.25;;;3.70;;
7263;SDS011;3673;52.480;13.348;2023-05-28T11:54:44;14.73;;;3.50;;
7263;SDS011;3673;52.480;13.348;2023-05-28T11:57:16;7.72;;;3.30;;
7263;SDS011;3673;52.480;13.348;2023-05-28T11:59:54;8.30;;;3.75;;
7263;SDS011;3673;52.480;13.348;2023-05-28T12:02:42;8.00;;;3.60;;
7263;SDS011;3673;52.480;13.348;2023-05-28T12:05:10;13.80;;;3.92;;
7263;SDS011;3673;52.480;13.348;2023-05-28T12:07:42;8.00;;;4.97;;
7263;SDS011;3673;52.480;13.348;2023-05-28T12:10:12;5.82;;;3.72;;
7263;SDS011;3673;52.480;13.348;2023-05-28T12:12:42;6.93;;;2.95;;
7263;SDS011;3673;52.480;13.348;2023-05-28T12:15:10;8.07;;;4.70;;
7263;SDS011;3673;52.480;13.348;2023-05-28T12:17:43;11.02;;;4.85;;
7263;SDS011;3673;52.480;13.348;2023-05-28T12:20:27;8.43;;;7.13;;
7263;SDS011;3673;52.480;13.348;2023-05-28T12:22:59;6.45;;;3.33;;
7263;SDS011;3673;52.480;13.348;2023-05-28T12:25:47;4.55;;;3.75;;
7263;SDS011;3673;52.480;13.348;2023-05-28T12:28:16;5.60;;;3.55;;
7263;SDS011;3673;52.480;13.348;2023-05-28T12:30:45;4.80;;;3.10;;
7263;SDS011;3673;52.480;13.348;2023-05-28T12:33:19;9.18;;;6.70;;
7263;SDS011;3673;52.480;13.348;2023-05-28T12:35:47;4.88;;;3.78;;
7263;SDS011;3673;52.480;13.348;2023-05-28T12:38:14;5.00;;;3.05;;
7263;SDS011;3673;52.480;13.348;2023-05-28T12:40:41;8.52;;;5.22;;
7263;SDS011;3673;52.480;13.348;2023-05-28T12:43:08;5.63;;;4.88;;
7263;SDS011;3673;52.480;13.348;2023-05-28T12:45:35;3.92;;;2.85;;
7263;SDS011;3673;52.480;13.348;2023-05-28T12:48:02;6.90;;;6.20;;
7263;SDS011;3673;52.480;13.348;2023-05-28T12:50:31;5.82;;;2.85;;
7263;SDS011;3673;52.480;13.348;2023-05-28T12:52:58;3.53;;;2.58;;
7263;SDS011;3673;52.480;13.348;2023-05-28T12:55:25;3.53;;;2.67;;
7263;SDS011;3673;52.480;13.348;2023-05-28T12:57:52;5.93;;;3.00;;
7263;SDS011;3673;52.480;13.348;2023-05-28T13:00:18;9.10;;;2.35;;
7263;SDS011;3673;52.480;13.348;2023-05-28T13:02:46;5.70;;;3.40;;
7263;SDS011;3673;52.480;13.348;2023-05-28T13:05:13;5.35;;;3.00;;
7263;SDS011;3673;52.480;13.348;2023-05-28T13:07:41;6.47;;;3.88;;
7263;SDS011;3673;52.480;13.348;2023-05-28T13:10:10;10.13;;;5.93;;
7263;SDS011;3673;52.480;13.348;2023-05-28T13:12:37;5.15;;;3.53;;
7263;SDS011;3673;52.480;13.348;2023-05-28T13:15:04;7.03;;;3.83;;
7263;SDS011;3673;52.480;13.348;2023-05-28T13:17:33;7.97;;;4.07;;
7263;SDS011;3673;52.480;13.348;2023-05-28T13:20:00;8.07;;;3.65;;
7263;SDS011;3673;52.480;13.348;2023-05-28T13:22:32;6.40;;;3.00;;
7263;SDS011;3673;52.480;13.348;2023-05-28T13:25:01;5.28;;;2.50;;
7263;SDS011;3673;52.480;13.348;2023-05-28T13:27:29;7.90;;;2.88;;
7263;SDS011;3673;52.480;13.348;2023-05-28T13:29:56;7.35;;;3.08;;
7263;SDS011;3673;52.480;13.348;2023-05-28T13:32:23;5.32;;;3.05;;
7263;SDS011;3673;52.480;13.348;2023-05-28T13:34:50;4.15;;;2.65;;
7263;SDS011;3673;52.480;13.348;2023-05-28T13:37:17;3.17;;;2.53;;
7263;SDS011;3673;52.480;13.348;2023-05-28T13:39:44;11.65;;;3.92;;
7263;SDS011;3673;52.480;13.348;2023-05-28T13:42:12;7.10;;;3.03;;
7263;SDS011;3673;52.480;13.348;2023-05-28T13:44:44;2.55;;;1.85;;
7263;SDS011;3673;52.480;13.348;2023-05-28T13:47:12;5.82;;;3.30;;
7263;SDS011;3673;52.480;13.348;2023-05-28T13:49:39;5.53;;;2.75;;
7263;SDS011;3673;52.480;13.348;2023-05-28T13:52:06;4.05;;;2.83;;
7263;SDS011;3673;52.480;13.348;2023-05-28T13:54:33;4.00;;;2.63;;
7263;SDS011;3673;52.480;13.348;2023-05-28T13:57:01;4.22;;;3.28;;
7263;SDS011;3673;52.480;13.348;2023-05-28T13:59:29;4.07;;;2.95;;
7263;SDS011;3673;52.480;13.348;2023-05-28T14:01:56;3.67;;;2.92;;
7263;SDS011;3673;52.480;13.348;2023-05-28T14:04:23;4.18;;;2.90;;
7263;SDS011;3673;52.480;13.348;2023-05-28T14:06:49;3.25;;;2.40;;
7263;SDS011;3673;52.480;13.348;2023-05-28T14:09:16;5.30;;;2.63;;
7263;SDS011;3673;52.480;13.348;2023-05-28T14:11:43;7.90;;;3.78;;
7263;SDS011;3673;52.480;13.348;2023-05-28T14:14:11;3.88;;;2.67;;
7263;SDS011;3673;52.480;13.348;2023-05-28T14:16:40;4.95;;;2.38;;
7263;SDS011;3673;52.480;13.348;2023-05-28T14:19:07;5.43;;;3.03;;
7263;SDS011;3673;52.480;13.348;2023-05-28T14:21:33;11.02;;;3.45;;
7263;SDS011;3673;52.480;13.348;2023-05-28T14:24:00;4.18;;;2.70;;
7263;SDS011;3673;52.480;13.348;2023-05-28T14:26:27;4.43;;;3.63;;
7263;SDS011;3673;52.480;13.348;2023-05-28T14:28:54;4.55;;;2.75;;
7263;SDS011;3673;52.480;13.348;2023-05-28T14:31:21;5.60;;;2.72;;
7263;SDS011;3673;52.480;13.348;2023-05-28T14:33:49;4.03;;;2.60;;
7263;SDS011;3673;52.480;13.348;2023-05-28T14:36:16;3.97;;;2.65;;
7263;SDS011;3673;52.480;13.348;2023-05-28T14:38:42;4.03;;;3.00;;
7263;SDS011;3673;52.480;13.348;2023-05-28T14:41:09;4.47;;;3.03;;
7263;SDS011;3673;52.480;13.348;2023-05-28T14:43:37;7.05;;;3.08;;
7263;SDS011;3673;52.480;13.348;2023-05-28T14:46:04;3.45;;;2.45;;
7263;SDS011;3673;52.480;13.348;2023-05-28T14:48:30;4.45;;;2.45;;
7263;SDS011;3673;52.480;13.348;2023-05-28T14:50:59;4.28;;;2.80;;
7263;SDS011;3673;52.480;13.348;2023-05-28T14:53:26;3.35;;;2.42;;
7263;SDS011;3673;52.480;13.348;2023-05-28T14:55:53;7.45;;;3.10;;
7263;SDS011;3673;52.480;13.348;2023-05-28T14:58:20;5.68;;;2.97;;
7263;SDS011;3673;52.480;13.348;2023-05-28T15:00:47;5.13;;;3.10;;
7263;SDS011;3673;52.480;13.348;2023-05-28T15:03:15;5.40;;;2.65;;
7263;SDS011;3673;52.480;13.348;2023-05-28T15:05:42;5.25;;;2.58;;
7263;SDS011;3673;52.480;13.348;2023-05-28T15:08:10;3.88;;;2.95;;
7263;SDS011;3673;52.480;13.348;2023-05-28T15:10:37;6.22;;;3.03;;